sensor_id;sensor_type;location;lat;lon;timestamp;temperature;humidity
28763;DHT22;15918;51.270;6.522;2022-12-29T00:01:16;12.20;78.70
28763;DHT22;15918;51.270;6.522;2022-12-29T00:03:41;12.30;78.70
28763;DHT22;15918;51.270;6.522;2022-12-29T00:06:07;12.30;78.70
28763;DHT22;15918;51.270;6.522;2022-12-29T00:08:33;12.30;78.80
28763;DHT22;15918;51.270;6.522;2022-12-29T00:11:15;12.30;78.90
28763;DHT22;15918;51.270;6.522;2022-12-29T00:13:41;12.30;78.80
28763;DHT22;15918;51.270;6.522;2022-12-29T00:16:26;12.30;78.90
28763;DHT22;15918;51.270;6.522;2022-12-29T00:18:52;12.30;78.80
28763;DHT22;15918;51.270;6.522;2022-12-29T00:21:20;12.30;78.80
28763;DHT22;15918;51.270;6.522;2022-12-29T00:24:05;12.30;78.80
28763;DHT22;15918;51.270;6.522;2022-12-29T00:27:12;12.30;78.90
28763;DHT22;15918;51.270;6.522;2022-12-29T00:29:57;12.30;78.90
28763;DHT22;15918;51.270;6.522;2022-12-29T00:32:41;12.20;79.00
28763;DHT22;15918;51.270;6.522;2022-12-29T00:35:29;12.30;79.00
28763;DHT22;15918;51.270;6.522;2022-12-29T00:37:58;12.30;79.10
28763;DHT22;15918;51.270;6.522;2022-12-29T00:40:43;12.30;79.20
28763;DHT22;15918;51.270;6.522;2022-12-29T00:43:27;12.30;79.30
28763;DHT22;15918;51.270;6.522;2022-12-29T00:46:11;12.30;79.90
28763;DHT22;15918;51.270;6.522;2022-12-29T00:48:36;12.30;79.30
28763;DHT22;15918;51.270;6.522;2022-12-29T00:51:20;12.30;79.30
28763;DHT22;15918;51.270;6.522;2022-12-29T00:53:46;12.30;79.20
28763;DHT22;15918;51.270;6.522;2022-12-29T00:56:12;12.30;79.20
28763;DHT22;15918;51.270;6.522;2022-12-29T00:58:37;12.40;79.20
28763;DHT22;15918;51.270;6.522;2022-12-29T01:01:07;12.40;79.20
28763;DHT22;15918;51.270;6.522;2022-12-29T01:03:34;12.40;79.30
28763;DHT22;15918;51.270;6.522;2022-12-29T01:06:05;12.40;79.20
28763;DHT22;15918;51.270;6.522;2022-12-29T01:08:31;12.40;79.20
28763;DHT22;15918;51.270;6.522;2022-12-29T01:11:11;12.40;79.10
28763;DHT22;15918;51.270;6.522;2022-12-29T01:13:37;12.40;79.00
28763;DHT22;15918;51.270;6.522;2022-12-29T01:16:05;12.40;79.10
28763;DHT22;15918;51.270;6.522;2022-12-29T01:18:31;12.40;79.00
28763;DHT22;15918;51.270;6.522;2022-12-29T01:21:05;12.40;79.00
28763;DHT22;15918;51.270;6.522;2022-12-29T01:23:32;12.40;78.90
28763;DHT22;15918;51.270;6.522;2022-12-29T01:26:08;12.40;79.00
28763;DHT22;15918;51.270;6.522;2022-12-29T01:28:34;12.40;78.80
28763;DHT22;15918;51.270;6.522;2022-12-29T01:31:00;12.40;79.00
28763;DHT22;15918;51.270;6.522;2022-12-29T01:33:26;12.40;78.90
28763;DHT22;15918;51.270;6.522;2022-12-29T01:35:52;12.40;78.80
28763;DHT22;15918;51.270;6.522;2022-12-29T01:38:17;12.50;78.80
28763;DHT22;15918;51.270;6.522;2022-12-29T01:40:47;12.40;78.70
28763;DHT22;15918;51.270;6.522;2022-12-29T01:43:13;12.50;78.70
28763;DHT22;15918;51.270;6.522;2022-12-29T01:45:45;12.50;78.70
28763;DHT22;15918;51.270;6.522;2022-12-29T01:48:13;12.50;78.60
28763;DHT22;15918;51.270;6.522;2022-12-29T01:50:49;12.50;78.70
28763;DHT22;15918;51.270;6.522;2022-12-29T01:53:22;12.50;78.60
28763;DHT22;15918;51.270;6.522;2022-12-29T01:55:54;12.50;78.50
28763;DHT22;15918;51.270;6.522;2022-12-29T01:58:22;12.50;78.50
28763;DHT22;15918;51.270;6.522;2022-12-29T02:00:48;12.50;78.40
28763;DHT22;15918;51.270;6.522;2022-12-29T02:03:14;12.50;78.40
28763;DHT22;15918;51.270;6.522;2022-12-29T02:06:21;12.50;78.30
28763;DHT22;15918;51.270;6.522;2022-12-29T02:08:50;12.50;78.20
28763;DHT22;15918;51.270;6.522;2022-12-29T02:11:18;12.50;78.30
28763;DHT22;15918;51.270;6.522;2022-12-29T02:13:44;12.50;78.20
28763;DHT22;15918;51.270;6.522;2022-12-29T02:16:52;12.50;78.10
28763;DHT22;15918;51.270;6.522;2022-12-29T02:31:19;12.50;77.90
28763;DHT22;15918;51.270;6.522;2022-12-29T02:45:53;12.50;77.50
28763;DHT22;15918;51.270;6.522;2022-12-29T02:48:30;12.50;77.40
28763;DHT22;15918;51.270;6.522;2022-12-29T02:51:03;12.50;77.60
28763;DHT22;15918;51.270;6.522;2022-12-29T02:53:31;12.40;77.60
28763;DHT22;15918;51.270;6.522;2022-12-29T02:56:16;12.40;77.50
28763;DHT22;15918;51.270;6.522;2022-12-29T02:58:42;12.50;77.50
28763;DHT22;15918;51.270;6.522;2022-12-29T03:01:23;12.50;77.40
28763;DHT22;15918;51.270;6.522;2022-12-29T03:09:19;12.50;77.30
28763;DHT22;15918;51.270;6.522;2022-12-29T03:11:59;12.50;77.20
28763;DHT22;15918;51.270;6.522;2022-12-29T03:18:02;12.50;77.20
28763;DHT22;15918;51.270;6.522;2022-12-29T03:21:06;12.50;77.20
28763;DHT22;15918;51.270;6.522;2022-12-29T03:23:31;12.50;77.20
28763;DHT22;15918;51.270;6.522;2022-12-29T03:26:00;12.50;77.30
28763;DHT22;15918;51.270;6.522;2022-12-29T03:28:38;12.50;77.30
28763;DHT22;15918;51.270;6.522;2022-12-29T03:31:07;12.60;77.30
28763;DHT22;15918;51.270;6.522;2022-12-29T03:33:34;12.50;77.30
28763;DHT22;15918;51.270;6.522;2022-12-29T03:36:03;12.60;77.40
28763;DHT22;15918;51.270;6.522;2022-12-29T03:38:34;12.60;77.40
28763;DHT22;15918;51.270;6.522;2022-12-29T03:41:04;12.60;77.40
28763;DHT22;15918;51.270;6.522;2022-12-29T03:43:32;12.60;77.50
28763;DHT22;15918;51.270;6.522;2022-12-29T03:45:58;12.60;77.40
28763;DHT22;15918;51.270;6.522;2022-12-29T03:48:24;12.60;77.40
28763;DHT22;15918;51.270;6.522;2022-12-29T03:50:49;12.60;77.50
28763;DHT22;15918;51.270;6.522;2022-12-29T03:53:15;12.60;77.40
28763;DHT22;15918;51.270;6.522;2022-12-29T03:55:41;12.60;77.40
28763;DHT22;15918;51.270;6.522;2022-12-29T03:58:07;12.60;77.40
28763;DHT22;15918;51.270;6.522;2022-12-29T04:00:32;12.60;77.40
28763;DHT22;15918;51.270;6.522;2022-12-29T04:02:58;12.60;77.40
28763;DHT22;15918;51.270;6.522;2022-12-29T04:05:23;12.60;77.40
28763;DHT22;15918;51.270;6.522;2022-12-29T04:07:49;12.60;77.40
28763;DHT22;15918;51.270;6.522;2022-12-29T04:10:15;12.60;77.40
28763;DHT22;15918;51.270;6.522;2022-12-29T04:12:40;12.70;77.40
28763;DHT22;15918;51.270;6.522;2022-12-29T04:15:08;12.60;77.40
28763;DHT22;15918;51.270;6.522;2022-12-29T04:17:33;12.60;77.40
28763;DHT22;15918;51.270;6.522;2022-12-29T04:19:59;12.60;77.30
28763;DHT22;15918;51.270;6.522;2022-12-29T04:22:43;12.70;77.40
28763;DHT22;15918;51.270;6.522;2022-12-29T04:25:09;12.70;77.40
28763;DHT22;15918;51.270;6.522;2022-12-29T04:27:35;12.70;77.30
28763;DHT22;15918;51.270;6.522;2022-12-29T04:30:00;12.70;77.30
28763;DHT22;15918;51.270;6.522;2022-12-29T04:32:26;12.70;77.20
28763;DHT22;15918;51.270;6.522;2022-12-29T04:34:52;12.70;77.20
28763;DHT22;15918;51.270;6.522;2022-12-29T04:37:17;12.70;77.10
28763;DHT22;15918;51.270;6.522;2022-12-29T04:39:43;12.70;77.00
28763;DHT22;15918;51.270;6.522;2022-12-29T04:42:08;12.70;77.00
28763;DHT22;15918;51.270;6.522;2022-12-29T04:44:34;12.70;76.90
28763;DHT22;15918;51.270;6.522;2022-12-29T04:46:59;12.70;76.90
28763;DHT22;15918;51.270;6.522;2022-12-29T04:49:25;12.70;76.80
28763;DHT22;15918;51.270;6.522;2022-12-29T04:51:50;12.70;76.70
28763;DHT22;15918;51.270;6.522;2022-12-29T04:54:16;12.70;76.70
28763;DHT22;15918;51.270;6.522;2022-12-29T04:56:41;12.70;76.50
28763;DHT22;15918;51.270;6.522;2022-12-29T04:59:07;12.70;76.50
28763;DHT22;15918;51.270;6.522;2022-12-29T05:01:33;12.70;76.40
28763;DHT22;15918;51.270;6.522;2022-12-29T05:03:58;12.70;76.20
28763;DHT22;15918;51.270;6.522;2022-12-29T05:06:24;12.70;76.20
28763;DHT22;15918;51.270;6.522;2022-12-29T05:08:49;12.80;76.10
28763;DHT22;15918;51.270;6.522;2022-12-29T05:11:15;12.70;76.00
28763;DHT22;15918;51.270;6.522;2022-12-29T05:13:40;12.70;76.00
28763;DHT22;15918;51.270;6.522;2022-12-29T05:16:06;12.70;76.10
28763;DHT22;15918;51.270;6.522;2022-12-29T05:18:32;12.70;76.20
28763;DHT22;15918;51.270;6.522;2022-12-29T05:20:58;12.70;76.30
28763;DHT22;15918;51.270;6.522;2022-12-29T05:23:23;12.70;76.40
28763;DHT22;15918;51.270;6.522;2022-12-29T05:25:49;12.70;76.50
28763;DHT22;15918;51.270;6.522;2022-12-29T05:28:14;12.70;76.60
28763;DHT22;15918;51.270;6.522;2022-12-29T05:30:40;12.70;76.70
28763;DHT22;15918;51.270;6.522;2022-12-29T05:33:06;12.70;76.80
28763;DHT22;15918;51.270;6.522;2022-12-29T05:35:32;12.70;76.90
28763;DHT22;15918;51.270;6.522;2022-12-29T05:37:58;12.80;77.10
28763;DHT22;15918;51.270;6.522;2022-12-29T05:40:23;12.70;77.10
28763;DHT22;15918;51.270;6.522;2022-12-29T05:42:49;12.80;77.10
28763;DHT22;15918;51.270;6.522;2022-12-29T05:45:14;12.70;77.10
28763;DHT22;15918;51.270;6.522;2022-12-29T05:47:40;12.80;77.10
28763;DHT22;15918;51.270;6.522;2022-12-29T05:50:06;12.80;77.10
28763;DHT22;15918;51.270;6.522;2022-12-29T05:52:31;12.80;77.10
28763;DHT22;15918;51.270;6.522;2022-12-29T05:54:57;12.70;77.00
28763;DHT22;15918;51.270;6.522;2022-12-29T05:57:23;12.70;77.00
28763;DHT22;15918;51.270;6.522;2022-12-29T05:59:48;12.70;76.90
28763;DHT22;15918;51.270;6.522;2022-12-29T06:02:14;12.80;76.90
28763;DHT22;15918;51.270;6.522;2022-12-29T06:04:39;12.70;76.80
28763;DHT22;15918;51.270;6.522;2022-12-29T06:07:05;12.80;76.80
28763;DHT22;15918;51.270;6.522;2022-12-29T06:09:30;12.70;76.70
28763;DHT22;15918;51.270;6.522;2022-12-29T06:11:56;12.70;76.60
28763;DHT22;15918;51.270;6.522;2022-12-29T06:14:21;12.80;76.50
28763;DHT22;15918;51.270;6.522;2022-12-29T06:16:47;12.70;76.30
28763;DHT22;15918;51.270;6.522;2022-12-29T06:19:13;12.70;76.20
28763;DHT22;15918;51.270;6.522;2022-12-29T06:21:38;12.70;76.20
28763;DHT22;15918;51.270;6.522;2022-12-29T06:24:05;12.70;76.10
28763;DHT22;15918;51.270;6.522;2022-12-29T06:26:30;12.70;76.00
28763;DHT22;15918;51.270;6.522;2022-12-29T06:28:56;12.70;75.90
28763;DHT22;15918;51.270;6.522;2022-12-29T06:31:22;12.70;75.80
28763;DHT22;15918;51.270;6.522;2022-12-29T06:33:47;12.70;75.80
28763;DHT22;15918;51.270;6.522;2022-12-29T06:36:13;12.70;75.80
28763;DHT22;15918;51.270;6.522;2022-12-29T06:38:38;12.70;75.70
28763;DHT22;15918;51.270;6.522;2022-12-29T06:41:04;12.70;75.60
28763;DHT22;15918;51.270;6.522;2022-12-29T06:43:29;12.70;75.60
28763;DHT22;15918;51.270;6.522;2022-12-29T06:45:56;12.80;75.50
28763;DHT22;15918;51.270;6.522;2022-12-29T06:48:21;12.70;75.40
28763;DHT22;15918;51.270;6.522;2022-12-29T06:50:47;12.70;75.40
28763;DHT22;15918;51.270;6.522;2022-12-29T06:53:12;12.70;75.30
28763;DHT22;15918;51.270;6.522;2022-12-29T06:55:38;12.70;75.30
28763;DHT22;15918;51.270;6.522;2022-12-29T06:58:04;12.70;75.20
28763;DHT22;15918;51.270;6.522;2022-12-29T07:00:29;12.70;75.10
28763;DHT22;15918;51.270;6.522;2022-12-29T07:02:55;12.80;75.10
28763;DHT22;15918;51.270;6.522;2022-12-29T07:05:23;12.80;75.00
28763;DHT22;15918;51.270;6.522;2022-12-29T07:07:50;12.70;74.80
28763;DHT22;15918;51.270;6.522;2022-12-29T07:10:16;12.70;74.90
28763;DHT22;15918;51.270;6.522;2022-12-29T07:12:41;12.70;74.80
28763;DHT22;15918;51.270;6.522;2022-12-29T07:15:07;12.70;74.60
28763;DHT22;15918;51.270;6.522;2022-12-29T07:17:33;12.70;74.60
28763;DHT22;15918;51.270;6.522;2022-12-29T07:19:58;12.70;74.50
28763;DHT22;15918;51.270;6.522;2022-12-29T07:22:24;12.80;74.40
28763;DHT22;15918;51.270;6.522;2022-12-29T07:24:49;12.70;74.20
28763;DHT22;15918;51.270;6.522;2022-12-29T07:27:15;12.80;75.00
28763;DHT22;15918;51.270;6.522;2022-12-29T07:29:41;12.70;74.10
28763;DHT22;15918;51.270;6.522;2022-12-29T07:32:06;12.70;74.00
28763;DHT22;15918;51.270;6.522;2022-12-29T07:34:32;12.70;74.00
28763;DHT22;15918;51.270;6.522;2022-12-29T07:36:57;12.70;73.90
28763;DHT22;15918;51.270;6.522;2022-12-29T07:39:23;12.80;74.00
28763;DHT22;15918;51.270;6.522;2022-12-29T07:41:49;12.70;73.90
28763;DHT22;15918;51.270;6.522;2022-12-29T07:44:14;12.70;73.80
28763;DHT22;15918;51.270;6.522;2022-12-29T07:46:40;12.70;73.80
28763;DHT22;15918;51.270;6.522;2022-12-29T07:49:05;12.70;73.70
28763;DHT22;15918;51.270;6.522;2022-12-29T07:51:32;12.70;73.70
28763;DHT22;15918;51.270;6.522;2022-12-29T07:53:57;12.70;73.60
28763;DHT22;15918;51.270;6.522;2022-12-29T07:56:25;12.70;73.60
28763;DHT22;15918;51.270;6.522;2022-12-29T07:58:51;12.70;73.60
28763;DHT22;15918;51.270;6.522;2022-12-29T08:01:16;12.70;73.40
28763;DHT22;15918;51.270;6.522;2022-12-29T08:03:42;12.70;73.30
28763;DHT22;15918;51.270;6.522;2022-12-29T08:06:11;12.70;73.30
28763;DHT22;15918;51.270;6.522;2022-12-29T08:08:36;12.70;73.20
28763;DHT22;15918;51.270;6.522;2022-12-29T08:11:02;12.70;73.10
28763;DHT22;15918;51.270;6.522;2022-12-29T08:13:27;12.70;73.00
28763;DHT22;15918;51.270;6.522;2022-12-29T08:15:53;12.70;73.00
28763;DHT22;15918;51.270;6.522;2022-12-29T08:18:18;12.70;73.00
28763;DHT22;15918;51.270;6.522;2022-12-29T08:20:44;12.70;72.90
28763;DHT22;15918;51.270;6.522;2022-12-29T08:23:10;12.70;72.90
28763;DHT22;15918;51.270;6.522;2022-12-29T08:25:35;12.70;72.90
28763;DHT22;15918;51.270;6.522;2022-12-29T08:28:01;12.70;72.80
28763;DHT22;15918;51.270;6.522;2022-12-29T08:30:26;12.70;72.80
28763;DHT22;15918;51.270;6.522;2022-12-29T08:32:52;12.70;72.90
28763;DHT22;15918;51.270;6.522;2022-12-29T08:35:18;12.70;72.90
28763;DHT22;15918;51.270;6.522;2022-12-29T08:37:43;12.70;72.90
28763;DHT22;15918;51.270;6.522;2022-12-29T08:40:09;12.70;73.00
28763;DHT22;15918;51.270;6.522;2022-12-29T08:42:35;12.70;72.80
28763;DHT22;15918;51.270;6.522;2022-12-29T08:45:00;12.60;72.80
28763;DHT22;15918;51.270;6.522;2022-12-29T08:47:27;12.70;72.80
28763;DHT22;15918;51.270;6.522;2022-12-29T08:49:52;12.60;72.70
28763;DHT22;15918;51.270;6.522;2022-12-29T08:52:18;12.60;72.70
28763;DHT22;15918;51.270;6.522;2022-12-29T08:54:44;12.60;72.70
28763;DHT22;15918;51.270;6.522;2022-12-29T08:57:09;12.60;72.70
28763;DHT22;15918;51.270;6.522;2022-12-29T08:59:35;12.60;72.70
28763;DHT22;15918;51.270;6.522;2022-12-29T09:02:01;12.60;72.70
28763;DHT22;15918;51.270;6.522;2022-12-29T09:04:28;12.60;72.70
28763;DHT22;15918;51.270;6.522;2022-12-29T09:06:54;12.70;72.80
28763;DHT22;15918;51.270;6.522;2022-12-29T09:09:20;12.60;72.60
28763;DHT22;15918;51.270;6.522;2022-12-29T09:11:46;12.60;72.60
28763;DHT22;15918;51.270;6.522;2022-12-29T09:14:12;12.60;72.60
28763;DHT22;15918;51.270;6.522;2022-12-29T09:16:38;12.70;72.60
28763;DHT22;15918;51.270;6.522;2022-12-29T09:19:04;12.70;72.60
28763;DHT22;15918;51.270;6.522;2022-12-29T09:21:29;12.70;72.50
28763;DHT22;15918;51.270;6.522;2022-12-29T09:23:55;12.60;72.40
28763;DHT22;15918;51.270;6.522;2022-12-29T09:26:21;12.70;72.40
28763;DHT22;15918;51.270;6.522;2022-12-29T09:28:46;12.60;72.30
28763;DHT22;15918;51.270;6.522;2022-12-29T09:31:12;12.60;72.20
28763;DHT22;15918;51.270;6.522;2022-12-29T09:33:38;12.60;72.20
28763;DHT22;15918;51.270;6.522;2022-12-29T09:36:04;12.70;72.20
28763;DHT22;15918;51.270;6.522;2022-12-29T09:38:30;12.70;72.10
28763;DHT22;15918;51.270;6.522;2022-12-29T09:41:24;12.70;71.90
28763;DHT22;15918;51.270;6.522;2022-12-29T09:44:14;12.70;71.50
28763;DHT22;15918;51.270;6.522;2022-12-29T09:46:47;12.70;71.60
28763;DHT22;15918;51.270;6.522;2022-12-29T09:49:39;12.60;71.60
28763;DHT22;15918;51.270;6.522;2022-12-29T09:52:31;12.70;71.50
28763;DHT22;15918;51.270;6.522;2022-12-29T09:55:05;12.70;71.50
28763;DHT22;15918;51.270;6.522;2022-12-29T10:00:16;12.70;71.10
28763;DHT22;15918;51.270;6.522;2022-12-29T10:02:49;12.70;71.20
28763;DHT22;15918;51.270;6.522;2022-12-29T10:05:26;12.70;71.00
28763;DHT22;15918;51.270;6.522;2022-12-29T10:08:17;12.70;70.80
28763;DHT22;15918;51.270;6.522;2022-12-29T10:13:57;12.70;70.30
28763;DHT22;15918;51.270;6.522;2022-12-29T10:16:42;12.60;70.20
28763;DHT22;15918;51.270;6.522;2022-12-29T10:19:42;12.70;70.20
28763;DHT22;15918;51.270;6.522;2022-12-29T10:22:36;12.70;70.00
28763;DHT22;15918;51.270;6.522;2022-12-29T10:25:24;12.70;69.80
28763;DHT22;15918;51.270;6.522;2022-12-29T10:27:52;12.60;69.80
28763;DHT22;15918;51.270;6.522;2022-12-29T10:30:19;12.70;69.80
28763;DHT22;15918;51.270;6.522;2022-12-29T10:32:58;12.70;69.80
28763;DHT22;15918;51.270;6.522;2022-12-29T10:35:28;12.70;69.50
28763;DHT22;15918;51.270;6.522;2022-12-29T10:46:14;12.70;69.40
28763;DHT22;15918;51.270;6.522;2022-12-29T10:48:41;12.70;69.30
28763;DHT22;15918;51.270;6.522;2022-12-29T10:51:11;12.70;69.20
28763;DHT22;15918;51.270;6.522;2022-12-29T10:53:51;12.70;69.10
28763;DHT22;15918;51.270;6.522;2022-12-29T10:56:39;12.80;69.00
28763;DHT22;15918;51.270;6.522;2022-12-29T10:59:24;12.80;69.00
28763;DHT22;15918;51.270;6.522;2022-12-29T11:04:59;12.80;68.80
28763;DHT22;15918;51.270;6.522;2022-12-29T11:07:28;12.80;68.80
28763;DHT22;15918;51.270;6.522;2022-12-29T11:09:55;12.80;68.70
28763;DHT22;15918;51.270;6.522;2022-12-29T11:12:40;12.80;68.70
28763;DHT22;15918;51.270;6.522;2022-12-29T11:17:53;12.80;68.50
28763;DHT22;15918;51.270;6.522;2022-12-29T11:22:53;12.80;68.30
28763;DHT22;15918;51.270;6.522;2022-12-29T11:25:19;12.80;69.00
28763;DHT22;15918;51.270;6.522;2022-12-29T11:28:14;12.80;68.20
28763;DHT22;15918;51.270;6.522;2022-12-29T11:30:40;12.90;68.00
28763;DHT22;15918;51.270;6.522;2022-12-29T11:33:05;12.80;68.10
28763;DHT22;15918;51.270;6.522;2022-12-29T11:35:44;12.90;68.00
28763;DHT22;15918;51.270;6.522;2022-12-29T11:38:20;12.90;68.50
28763;DHT22;15918;51.270;6.522;2022-12-29T11:40:47;12.90;67.80
28763;DHT22;15918;51.270;6.522;2022-12-29T11:43:30;12.90;67.80
28763;DHT22;15918;51.270;6.522;2022-12-29T11:45:56;12.90;67.60
28763;DHT22;15918;51.270;6.522;2022-12-29T11:48:22;12.90;67.60
28763;DHT22;15918;51.270;6.522;2022-12-29T11:50:55;12.90;67.50
28763;DHT22;15918;51.270;6.522;2022-12-29T11:53:25;13.00;67.40
28763;DHT22;15918;51.270;6.522;2022-12-29T11:55:54;12.90;67.30
28763;DHT22;15918;51.270;6.522;2022-12-29T11:58:27;12.90;67.20
28763;DHT22;15918;51.270;6.522;2022-12-29T12:00:53;12.90;67.20
28763;DHT22;15918;51.270;6.522;2022-12-29T12:03:23;12.90;67.20
28763;DHT22;15918;51.270;6.522;2022-12-29T12:05:57;13.00;67.10
28763;DHT22;15918;51.270;6.522;2022-12-29T12:08:36;12.90;66.90
28763;DHT22;15918;51.270;6.522;2022-12-29T12:11:19;13.00;67.00
28763;DHT22;15918;51.270;6.522;2022-12-29T12:16:23;13.00;66.90
28763;DHT22;15918;51.270;6.522;2022-12-29T12:18:53;13.00;66.90
28763;DHT22;15918;51.270;6.522;2022-12-29T12:26:39;13.00;66.80
28763;DHT22;15918;51.270;6.522;2022-12-29T12:29:19;13.00;66.90
28763;DHT22;15918;51.270;6.522;2022-12-29T12:31:59;13.00;66.70
28763;DHT22;15918;51.270;6.522;2022-12-29T12:34:33;13.00;66.70
28763;DHT22;15918;51.270;6.522;2022-12-29T12:40:27;13.00;66.50
28763;DHT22;15918;51.270;6.522;2022-12-29T12:43:27;13.00;66.80
28763;DHT22;15918;51.270;6.522;2022-12-29T13:09:56;13.00;66.70
28763;DHT22;15918;51.270;6.522;2022-12-29T13:12:43;13.00;66.70
28763;DHT22;15918;51.270;6.522;2022-12-29T13:15:33;13.00;66.60
28763;DHT22;15918;51.270;6.522;2022-12-29T13:20:42;13.00;66.70
28763;DHT22;15918;51.270;6.522;2022-12-29T13:31:53;13.00;66.70
28763;DHT22;15918;51.270;6.522;2022-12-29T13:34:34;13.00;66.90
28763;DHT22;15918;51.270;6.522;2022-12-29T13:37:09;13.00;66.80
28763;DHT22;15918;51.270;6.522;2022-12-29T13:39:43;13.00;66.80
28763;DHT22;15918;51.270;6.522;2022-12-29T13:42:11;13.10;66.70
28763;DHT22;15918;51.270;6.522;2022-12-29T13:44:46;13.00;66.60
28763;DHT22;15918;51.270;6.522;2022-12-29T13:49:57;13.00;66.50
28763;DHT22;15918;51.270;6.522;2022-12-29T14:00:59;13.00;66.40
28763;DHT22;15918;51.270;6.522;2022-12-29T14:03:43;13.00;66.30
28763;DHT22;15918;51.270;6.522;2022-12-29T14:06:18;13.00;66.50
28763;DHT22;15918;51.270;6.522;2022-12-29T14:08:45;13.00;66.40
28763;DHT22;15918;51.270;6.522;2022-12-29T14:11:14;13.00;66.40
28763;DHT22;15918;51.270;6.522;2022-12-29T14:13:45;13.00;66.30
28763;DHT22;15918;51.270;6.522;2022-12-29T14:16:25;13.00;66.10
28763;DHT22;15918;51.270;6.522;2022-12-29T14:18:52;13.00;66.10
28763;DHT22;15918;51.270;6.522;2022-12-29T14:21:21;13.00;66.30
28763;DHT22;15918;51.270;6.522;2022-12-29T14:23:50;13.00;66.30
28763;DHT22;15918;51.270;6.522;2022-12-29T14:26:17;13.00;66.20
28763;DHT22;15918;51.270;6.522;2022-12-29T14:28:47;13.00;66.10
28763;DHT22;15918;51.270;6.522;2022-12-29T14:36:40;13.00;65.80
28763;DHT22;15918;51.270;6.522;2022-12-29T14:47:49;13.00;65.90
28763;DHT22;15918;51.270;6.522;2022-12-29T14:50:16;12.90;66.10
28763;DHT22;15918;51.270;6.522;2022-12-29T14:52:46;12.90;66.00
28763;DHT22;15918;51.270;6.522;2022-12-29T14:57:43;13.00;65.90
28763;DHT22;15918;51.270;6.522;2022-12-29T15:00:18;13.00;65.90
28763;DHT22;15918;51.270;6.522;2022-12-29T15:02:48;13.00;65.90
28763;DHT22;15918;51.270;6.522;2022-12-29T15:05:34;13.00;65.90
28763;DHT22;15918;51.270;6.522;2022-12-29T15:08:03;13.00;65.60
28763;DHT22;15918;51.270;6.522;2022-12-29T15:10:36;13.00;65.80
28763;DHT22;15918;51.270;6.522;2022-12-29T15:13:05;12.90;65.60
28763;DHT22;15918;51.270;6.522;2022-12-29T15:15:37;13.00;65.80
28763;DHT22;15918;51.270;6.522;2022-12-29T15:18:23;12.90;65.70
28763;DHT22;15918;51.270;6.522;2022-12-29T15:21:01;13.00;65.70
28763;DHT22;15918;51.270;6.522;2022-12-29T15:23:28;12.90;65.60
28763;DHT22;15918;51.270;6.522;2022-12-29T15:26:00;12.90;65.80
28763;DHT22;15918;51.270;6.522;2022-12-29T15:28:30;12.90;65.70
28763;DHT22;15918;51.270;6.522;2022-12-29T15:31:04;12.90;65.70
28763;DHT22;15918;51.270;6.522;2022-12-29T15:33:30;12.90;65.60
28763;DHT22;15918;51.270;6.522;2022-12-29T15:35:57;12.90;65.60
28763;DHT22;15918;51.270;6.522;2022-12-29T15:38:29;12.90;65.60
28763;DHT22;15918;51.270;6.522;2022-12-29T15:40:58;12.90;65.60
28763;DHT22;15918;51.270;6.522;2022-12-29T15:46:15;12.90;65.40
28763;DHT22;15918;51.270;6.522;2022-12-29T15:48:41;12.90;65.70
28763;DHT22;15918;51.270;6.522;2022-12-29T15:51:20;12.90;65.60
28763;DHT22;15918;51.270;6.522;2022-12-29T15:53:48;12.80;65.40
28763;DHT22;15918;51.270;6.522;2022-12-29T15:56:15;12.90;65.60
28763;DHT22;15918;51.270;6.522;2022-12-29T15:58:46;12.90;65.60
28763;DHT22;15918;51.270;6.522;2022-12-29T16:01:35;12.80;65.60
28763;DHT22;15918;51.270;6.522;2022-12-29T16:04:04;12.90;65.70
28763;DHT22;15918;51.270;6.522;2022-12-29T16:06:34;12.80;65.70
28763;DHT22;15918;51.270;6.522;2022-12-29T16:13:57;12.80;66.00
28763;DHT22;15918;51.270;6.522;2022-12-29T16:18:53;12.80;66.10
28763;DHT22;15918;51.270;6.522;2022-12-29T16:21:28;12.80;66.20
28763;DHT22;15918;51.270;6.522;2022-12-29T16:23:57;12.90;66.20
28763;DHT22;15918;51.270;6.522;2022-12-29T16:26:25;12.80;66.10
28763;DHT22;15918;51.270;6.522;2022-12-29T16:28:55;12.80;66.10
28763;DHT22;15918;51.270;6.522;2022-12-29T16:31:25;12.80;65.90
28763;DHT22;15918;51.270;6.522;2022-12-29T16:33:55;12.80;65.90
28763;DHT22;15918;51.270;6.522;2022-12-29T16:39:19;12.80;65.70
28763;DHT22;15918;51.270;6.522;2022-12-29T16:41:47;12.80;65.60
28763;DHT22;15918;51.270;6.522;2022-12-29T16:44:17;12.80;65.60
28763;DHT22;15918;51.270;6.522;2022-12-29T16:46:57;12.80;65.50
28763;DHT22;15918;51.270;6.522;2022-12-29T16:49:24;12.80;65.40
28763;DHT22;15918;51.270;6.522;2022-12-29T16:51:51;12.70;65.30
28763;DHT22;15918;51.270;6.522;2022-12-29T16:54:50;12.70;65.10
28763;DHT22;15918;51.270;6.522;2022-12-29T16:57:25;12.70;65.50
28763;DHT22;15918;51.270;6.522;2022-12-29T16:59:52;12.70;65.00
28763;DHT22;15918;51.270;6.522;2022-12-29T17:02:20;12.70;65.00
28763;DHT22;15918;51.270;6.522;2022-12-29T17:04:47;12.70;65.00
28763;DHT22;15918;51.270;6.522;2022-12-29T17:07:20;12.70;64.90
28763;DHT22;15918;51.270;6.522;2022-12-29T17:09:46;12.70;64.80
28763;DHT22;15918;51.270;6.522;2022-12-29T17:12:17;12.70;64.90
28763;DHT22;15918;51.270;6.522;2022-12-29T17:14:48;12.70;64.90
28763;DHT22;15918;51.270;6.522;2022-12-29T17:19:55;12.70;65.60
28763;DHT22;15918;51.270;6.522;2022-12-29T17:22:26;12.60;66.00
28763;DHT22;15918;51.270;6.522;2022-12-29T17:24:52;12.70;66.40
28763;DHT22;15918;51.270;6.522;2022-12-29T17:29:55;12.60;67.00
28763;DHT22;15918;51.270;6.522;2022-12-29T17:32:21;12.60;67.20
28763;DHT22;15918;51.270;6.522;2022-12-29T17:34:47;12.60;67.40
28763;DHT22;15918;51.270;6.522;2022-12-29T17:37:34;12.50;67.60
28763;DHT22;15918;51.270;6.522;2022-12-29T17:40:00;12.50;67.80
28763;DHT22;15918;51.270;6.522;2022-12-29T17:42:26;12.50;68.10
28763;DHT22;15918;51.270;6.522;2022-12-29T17:44:52;12.50;68.20
28763;DHT22;15918;51.270;6.522;2022-12-29T17:47:17;12.50;68.30
28763;DHT22;15918;51.270;6.522;2022-12-29T17:49:43;12.50;68.40
28763;DHT22;15918;51.270;6.522;2022-12-29T17:52:14;12.50;68.50
28763;DHT22;15918;51.270;6.522;2022-12-29T17:54:45;12.50;68.60
28763;DHT22;15918;51.270;6.522;2022-12-29T17:57:13;12.50;68.70
28763;DHT22;15918;51.270;6.522;2022-12-29T17:59:40;12.50;68.70
28763;DHT22;15918;51.270;6.522;2022-12-29T18:02:21;12.40;68.70
28763;DHT22;15918;51.270;6.522;2022-12-29T18:04:47;12.40;68.70
28763;DHT22;15918;51.270;6.522;2022-12-29T18:07:13;12.40;68.80
28763;DHT22;15918;51.270;6.522;2022-12-29T18:09:38;12.40;68.80
28763;DHT22;15918;51.270;6.522;2022-12-29T18:12:05;12.40;68.80
28763;DHT22;15918;51.270;6.522;2022-12-29T18:14:31;12.40;68.80
28763;DHT22;15918;51.270;6.522;2022-12-29T18:16:57;12.40;68.80